Time;durP1;ratioP1;P1;durP2;ratioP2;P2;SDS_P1;SDS_P2;PMS_P1;PMS_P2;Temp;Humidity;BMP_temperature;BMP_pressure;BME280_temperature;BME280_humidity;BME280_pressure;Samples;Min_cycle;Max_cycle;Signal;HPM_P1;HPM_P2
2022/11/28 00:00:11;;;;;;;12.88;7.47;;;;;;;-2.88;81.23;101429.44;5045289;28;20520;-71
2022/11/28 00:02:40;;;;;;;14.68;8.32;;;;;;;-2.97;81.40;101427.59;5064865;28;20074;-70
2022/11/28 00:05:05;;;;;;;16.55;9.02;;;;;;;-2.96;81.24;101424.16;5053641;28;20170;-67
2022/11/28 00:07:30;;;;;;;15.98;8.18;;;;;;;-2.99;81.32;101433.66;5042082;28;20421;-68
2022/11/28 00:09:54;;;;;;;14.48;7.38;;;;;;;-2.88;81.46;101437.28;5023936;28;20419;-65
2022/11/28 00:12:19;;;;;;;7.55;4.15;;;;;;;-2.73;81.13;101429.63;4998466;28;20495;-64
2022/11/28 00:14:43;;;;;;;8.82;4.55;;;;;;;-2.70;80.65;101436.59;5009712;28;20407;-67
2022/11/28 00:17:08;;;;;;;6.40;3.78;;;;;;;-2.69;79.91;101441.84;5010539;28;20434;-66
2022/11/28 00:19:33;;;;;;;11.88;6.45;;;;;;;-2.76;79.45;101442.63;5019676;28;20580;-66
2022/11/28 00:21:57;;;;;;;7.82;4.72;;;;;;;-2.66;79.43;101433.16;5033974;28;20044;-64
2022/11/28 00:24:22;;;;;;;7.45;3.92;;;;;;;-2.62;78.97;101419.28;5017129;28;20060;-66
2022/11/28 00:26:46;;;;;;;7.13;3.72;;;;;;;-2.64;78.54;101418.41;5018108;28;20040;-65
2022/11/28 00:29:11;;;;;;;8.50;5.10;;;;;;;-2.67;78.43;101418.34;5023803;28;20044;-65
2022/11/28 00:31:41;;;;;;;11.25;7.80;;;;;;;-2.89;78.88;101424.19;4999059;28;20087;-65
2022/11/28 00:34:05;;;;;;;11.88;7.00;;;;;;;-2.80;78.65;101417.34;5025527;28;20044;-64
2022/11/28 00:36:30;;;;;;;9.82;5.75;;;;;;;-2.96;78.62;101418.06;5010298;28;20186;-65
2022/11/28 00:38:55;;;;;;;10.65;6.95;;;;;;;-3.05;79.35;101417.94;5014264;28;20127;-66
2022/11/28 00:41:27;;;;;;;11.48;6.53;;;;;;;-2.83;79.64;101425.16;5038589;28;20048;-66
2022/11/28 00:43:52;;;;;;;13.27;7.07;;;;;;;-2.88;79.79;101432.06;5069957;28;20051;-65
2022/11/28 00:46:18;;;;;;;7.00;5.60;;;;;;;-2.75;79.23;101430.47;5050676;28;20040;-65
2022/11/28 00:48:44;;;;;;;11.65;6.90;;;;;;;-2.95;79.06;101419.81;5057510;28;20066;-65
2022/11/28 00:51:23;;;;;;;11.10;7.20;;;;;;;-3.00;79.44;101421.47;5056934;28;20043;-75
2022/11/28 00:53:51;;;;;;;7.53;4.88;;;;;;;-2.85;79.89;101421.66;5057258;28;20039;-73
2022/11/28 00:56:19;;;;;;;14.40;3.92;;;;;;;-2.83;79.47;101439.94;5076691;28;20178;-75
2022/11/28 00:58:44;;;;;;;9.18;5.03;;;;;;;-2.93;79.13;101421.56;5048430;28;20038;-73
2022/11/28 01:01:19;;;;;;;7.35;3.45;;;;;;;-2.87;79.44;101420.75;5058205;28;20052;-74
2022/11/28 01:03:46;;;;;;;7.63;4.05;;;;;;;-2.90;79.49;101428.53;5052898;28;20071;-72
2022/11/28 01:06:11;;;;;;;12.63;7.28;;;;;;;-3.00;79.41;101426.69;5036624;28;20036;-72
2022/11/28 01:08:36;;;;;;;7.32;3.95;;;;;;;-2.87;79.56;101425.09;5058492;28;20031;-72
2022/11/28 01:11:02;;;;;;;12.10;7.10;;;;;;;-2.84;78.79;101420.81;5018424;28;20047;-72
2022/11/28 01:13:26;;;;;;;10.35;7.50;;;;;;;-2.95;79.09;101412.84;5055638;28;20398;-72
2022/11/28 01:15:51;;;;;;;12.35;7.70;;;;;;;-2.97;79.01;101416.28;5040144;28;20784;-70
2022/11/28 01:18:16;;;;;;;10.32;5.93;;;;;;;-3.01;79.20;101424.94;5045720;28;20035;-72
2022/11/28 01:20:40;;;;;;;8.52;4.95;;;;;;;-2.97;79.71;101425.00;5057390;28;20042;-69
2022/11/28 01:23:05;;;;;;;9.27;5.65;;;;;;;-2.88;79.19;101425.97;5055978;28;20024;-68
2022/11/28 01:25:30;;;;;;;7.53;4.82;;;;;;;-2.85;78.95;101419.06;5056292;28;20044;-68
2022/11/28 01:27:55;;;;;;;14.27;7.13;;;;;;;-2.93;78.60;101424.16;5047490;28;20762;-69
2022/11/28 01:30:20;;;;;;;5.88;4.32;;;;;;;-2.98;78.56;101415.41;5036126;28;20039;-69
2022/11/28 01:32:44;;;;;;;5.68;4.38;;;;;;;-2.88;78.76;101431.19;5039147;28;20035;-68
2022/11/28 01:35:09;;;;;;;10.80;6.43;;;;;;;-3.00;78.56;101424.06;5022530;28;20093;-70
2022/11/28 01:37:34;;;;;;;8.13;4.57;;;;;;;-2.92;78.59;101425.91;5057459;28;20068;-69
2022/11/28 01:39:58;;;;;;;10.95;7.07;;;;;;;-2.77;77.89;101456.53;5054491;28;20130;-71
2022/11/28 01:42:23;;;;;;;9.02;5.35;;;;;;;-2.88;77.68;101434.66;5054244;28;20497;-69
2022/11/28 01:44:47;;;;;;;11.23;6.40;;;;;;;-3.08;77.51;101423.13;5036321;28;20524;-68
2022/11/28 01:47:16;;;;;;;9.05;6.00;;;;;;;-3.14;78.00;101415.19;5057589;28;20032;-70
2022/11/28 01:49:42;;;;;;;8.18;6.45;;;;;;;-3.06;78.86;101435.34;5056870;28;20129;-69
2022/11/28 01:52:12;;;;;;;8.75;5.57;;;;;;;-3.07;78.57;101428.34;5054441;28;20038;-66
2022/11/28 01:54:39;;;;;;;12.10;6.60;;;;;;;-3.24;78.61;101426.38;5054239;28;20406;-67
2022/11/28 01:57:07;;;;;;;12.82;7.63;;;;;;;-3.33;79.36;101425.41;5036101;28;20044;-67
2022/11/28 01:59:43;;;;;;;15.68;7.75;;;;;;;-3.39;79.91;101425.34;5054216;28;20119;-71
2022/11/28 02:02:14;;;;;;;7.28;4.25;;;;;;;-3.17;80.13;101451.69;5057453;28;20047;-69
2022/11/28 02:04:41;;;;;;;6.88;4.55;;;;;;;-3.05;80.13;101438.81;5072048;28;20043;-68
2022/11/28 02:07:05;;;;;;;10.77;7.00;;;;;;;-3.15;79.23;101429.97;5039576;28;20038;-70
2022/11/28 02:09:30;;;;;;;7.22;4.90;;;;;;;-3.13;79.58;101419.56;5069359;28;20031;-70
2022/11/28 02:11:57;;;;;;;15.60;9.85;;;;;;;-3.26;79.28;101425.47;5042901;28;20486;-71
2022/11/28 02:14:57;;;;;;;10.23;5.55;;;;;;;-3.17;79.73;101430.84;5036232;28;20035;-70
2022/11/28 02:17:40;;;;;;;13.20;8.30;;;;;;;-3.14;79.90;101428.25;5049344;28;20118;-69
2022/11/28 02:20:34;;;;;;;17.60;9.93;;;;;;;-3.23;79.75;101423.78;5075280;28;20083;-73
2022/11/28 02:23:17;;;;;;;15.48;9.85;;;;;;;-3.34;79.89;101430.59;5047939;28;20075;-70
2022/11/28 02:26:06;;;;;;;9.05;5.90;;;;;;;-3.10;80.03;101449.19;5053552;28;20066;-69
2022/11/28 02:28:53;;;;;;;15.55;7.03;;;;;;;-3.18;80.12;101455.16;5048130;28;20067;-65
2022/11/28 02:31:26;;;;;;;9.60;6.60;;;;;;;-3.13;79.81;101450.88;5054234;28;20044;-65
2022/11/28 02:33:58;;;;;;;17.02;7.72;;;;;;;-3.05;79.71;101451.88;5056364;28;20423;-68
2022/11/28 02:36:22;;;;;;;11.52;6.32;;;;;;;-3.08;78.86;101457.91;5048691;28;20040;-67
2022/11/28 02:39:11;;;;;;;9.05;6.13;;;;;;;-3.26;79.04;101464.59;5063837;28;20032;-64
2022/11/28 02:41:55;;;;;;;15.68;6.53;;;;;;;-3.43;79.64;101452.22;5058698;28;20052;-65
2022/11/28 02:44:29;;;;;;;12.38;7.20;;;;;;;-3.60;80.35;101453.69;5058241;28;20421;-69
2022/11/28 02:46:56;;;;;;;10.40;5.68;;;;;;;-3.36;80.04;101469.69;5058659;28;20048;-66
2022/11/28 02:49:21;;;;;;;8.75;5.50;;;;;;;-3.36;79.69;101461.88;5054823;28;20047;-67
2022/11/28 02:52:11;;;;;;;12.80;7.18;;;;;;;-3.50;79.58;101457.34;5036954;28;20048;-65
2022/11/28 02:54:38;;;;;;;14.07;6.95;;;;;;;-3.61;79.79;101461.50;5067050;28;20387;-65
2022/11/28 02:57:02;;;;;;;11.88;7.35;;;;;;;-3.61;79.57;101472.78;5068567;28;20422;-64
2022/11/28 02:59:31;;;;;;;10.85;7.10;;;;;;;-3.55;79.81;101461.59;5060334;28;20758;-65
2022/11/28 03:01:58;;;;;;;14.70;7.00;;;;;;;-3.56;78.87;101473.75;5070118;28;20135;-67
2022/11/28 03:04:34;;;;;;;10.98;7.15;;;;;;;-3.49;79.41;101474.69;5060698;28;20147;-65
2022/11/28 03:07:37;;;;;;;13.68;7.18;;;;;;;-3.68;78.91;101477.03;5057837;28;20035;-65
2022/11/28 03:10:07;;;;;;;13.60;6.70;;;;;;;-3.66;79.65;101470.13;4977911;28;20498;-65
2022/11/28 03:13:09;;;;;;;10.50;6.78;;;;;;;-3.68;79.38;101481.38;4982453;28;20448;-65
2022/11/28 03:15:49;;;;;;;15.73;7.50;;;;;;;-3.68;79.32;101463.13;4987755;28;20037;-65
2022/11/28 03:18:25;;;;;;;14.18;7.22;;;;;;;-3.52;79.49;101477.28;4991216;28;20041;-69
2022/11/28 03:21:11;;;;;;;11.50;7.20;;;;;;;-3.50;79.20;101476.44;4994544;28;21046;-69
2022/11/28 03:23:52;;;;;;;12.32;6.20;;;;;;;-3.57;78.90;101481.53;4996543;28;20079;-69
2022/11/28 03:26:29;;;;;;;12.40;6.93;;;;;;;-3.69;79.24;101467.47;4979695;28;20052;-68
2022/11/28 03:29:08;;;;;;;10.55;6.32;;;;;;;-3.64;79.32;101491.00;4979030;28;20090;-68
2022/11/28 03:31:38;;;;;;;13.30;6.25;;;;;;;-3.71;79.05;101478.72;4995501;28;20519;-68
2022/11/28 03:34:05;;;;;;;11.93;6.80;;;;;;;-3.79;79.43;101483.81;4979078;28;20110;-67
2022/11/28 03:36:34;;;;;;;8.73;4.47;;;;;;;-3.68;79.47;101476.16;4978752;28;20401;-66
2022/11/28 03:39:21;;;;;;;15.25;9.70;;;;;;;-3.87;79.02;101485.44;4994889;28;20439;-67
2022/11/28 03:42:24;;;;;;;15.32;8.60;;;;;;;-3.91;80.11;101498.38;4978030;28;20543;-64
2022/11/28 03:44:57;;;;;;;15.50;7.70;;;;;;;-3.75;79.66;101500.38;4920531;28;20078;-68
2022/11/28 03:47:28;;;;;;;17.90;8.55;;;;;;;-3.80;79.37;101496.81;4976486;28;20169;-64
2022/11/28 03:50:00;;;;;;;17.85;9.52;;;;;;;-3.93;79.60;101502.66;4995178;28;20037;-65
2022/11/28 03:52:30;;;;;;;15.48;6.97;;;;;;;-3.71;79.87;101491.75;4978247;28;20099;-65
2022/11/28 03:54:59;;;;;;;8.88;4.97;;;;;;;-3.72;78.98;101497.81;4994316;28;20096;-66
2022/11/28 03:57:36;;;;;;;19.13;10.20;;;;;;;-3.96;79.26;101497.44;4978048;28;20041;-65
2022/11/28 04:00:06;;;;;;;12.65;8.77;;;;;;;-4.03;79.79;101506.84;4995201;28;20119;-64
2022/11/28 04:02:54;;;;;;;15.35;8.85;;;;;;;-3.86;80.29;101505.41;4994437;28;20139;-64
2022/11/28 04:05:36;;;;;;;12.85;5.88;;;;;;;-3.81;80.25;101510.69;4994483;28;20045;-65
2022/11/28 04:08:17;;;;;;;19.55;10.40;;;;;;;-3.81;79.84;101518.50;4994035;28;20045;-66
2022/11/28 04:10:50;;;;;;;23.23;11.88;;;;;;;-3.73;79.62;101507.38;4977717;28;20187;-66
2022/11/28 04:13:47;;;;;;;15.07;8.20;;;;;;;-3.83;79.17;101501.97;4977493;28;20048;-66
2022/11/28 04:16:22;;;;;;;6.68;4.15;;;;;;;-3.83;79.84;101509.78;4920731;28;20121;-66
2022/11/28 04:18:57;;;;;;;16.55;9.27;;;;;;;-3.95;79.62;101507.00;4900801;28;20597;-64
2022/11/28 04:21:21;;;;;;;;;;;;;;;-3.89;80.01;101510.56;4951409;28;20062;-65
2022/11/28 04:23:46;;;;;;;;;;;;;;;-3.88;79.64;101503.63;4946441;28;19940;-64
2022/11/28 04:26:17;;;;;;;15.57;7.18;;;;;;;-3.94;79.88;101513.94;4974608;28;20630;-64
2022/11/28 04:28:44;;;;;;;12.70;6.15;;;;;;;-3.88;79.71;101511.44;4955246;28;20038;-65
2022/11/28 04:31:09;;;;;;;17.48;8.80;;;;;;;-3.93;79.92;101502.66;4955074;28;20570;-64
2022/11/28 04:33:39;;;;;;;12.25;5.18;;;;;;;-3.85;80.06;101517.59;4954525;28;20505;-64
2022/11/28 04:36:05;;;;;;;18.58;7.78;;;;;;;-3.93;79.63;101513.97;4955365;28;20145;-64
2022/11/28 04:38:31;;;;;;;21.15;10.82;;;;;;;-4.05;79.99;101516.34;4955589;28;20058;-64
2022/11/28 04:41:05;;;;;;;22.08;12.20;;;;;;;-4.00;80.16;101514.72;4955137;28;20046;-64
2022/11/28 04:43:36;;;;;;;18.40;10.20;;;;;;;-4.04;80.11;101529.41;4954867;28;20504;-65
2022/11/28 04:46:11;;;;;;;12.20;6.07;;;;;;;-3.85;80.80;101516.72;4954929;28;20094;-65
2022/11/28 04:48:36;;;;;;;;;;;;;;;-3.83;80.59;101526.28;4955225;28;20042;-66
2022/11/28 04:51:11;;;;;;;17.08;9.55;;;;;;;-3.91;80.22;101521.81;4959993;28;19973;-65
2022/11/28 04:53:46;;;;;;;12.13;6.20;;;;;;;-3.83;80.22;101530.63;5051732;28;20494;-67
2022/11/28 04:56:28;;;;;;;19.15;11.35;;;;;;;-3.82;79.58;101524.56;5054801;28;20151;-66
2022/11/28 04:58:52;;;;;;;18.63;10.15;;;;;;;-3.91;79.41;101533.09;5051297;28;20499;-66
2022/11/28 05:01:25;;;;;;;18.10;10.23;;;;;;;-4.00;80.32;101539.91;5055626;28;20475;-66
2022/11/28 05:03:50;;;;;;;13.57;7.97;;;;;;;-3.84;80.08;101536.72;5055676;28;20047;-66
2022/11/28 05:06:33;;;;;;;20.83;11.05;;;;;;;-3.86;79.50;101543.63;5028301;28;20540;-67
2022/11/28 05:08:58;;;;;;;13.93;8.57;;;;;;;-3.72;79.98;101549.94;5042786;28;20040;-66
2022/11/28 05:11:23;;;;;;;17.63;8.80;;;;;;;-3.74;79.57;101546.44;5046063;28;20039;-66
2022/11/28 05:13:48;;;;;;;11.02;5.95;;;;;;;-3.68;79.33;101549.13;5045728;28;20066;-67
2022/11/28 05:16:14;;;;;;;12.98;6.82;;;;;;;-3.69;79.11;101555.19;5051275;28;20040;-66
2022/11/28 05:18:38;;;;;;;23.40;11.80;;;;;;;-3.80;78.99;101543.72;5055298;28;20474;-68
2022/11/28 05:21:07;;;;;;;14.48;8.02;;;;;;;-3.78;78.95;101540.28;5055631;28;20463;-66
2022/11/28 05:23:31;;;;;;;16.02;8.70;;;;;;;-3.74;78.88;101554.25;5061070;28;20043;-65
2022/11/28 05:25:56;;;;;;;18.05;11.38;;;;;;;-3.85;79.52;101551.47;5064257;28;20047;-66
2022/11/28 05:28:20;;;;;;;17.40;9.40;;;;;;;-3.81;79.13;101552.38;5055194;28;20103;-67
2022/11/28 05:30:55;;;;;;;22.00;10.85;;;;;;;-3.86;79.42;101564.47;5031758;28;20088;-66
2022/11/28 05:33:20;;;;;;;22.63;11.32;;;;;;;-3.81;80.04;101570.63;5055092;28;20078;-64
2022/11/28 05:35:44;;;;;;;17.27;9.00;;;;;;;-3.80;79.65;101575.88;5054852;28;20079;-65
2022/11/28 05:38:09;;;;;;;17.90;10.40;;;;;;;-3.84;80.34;101573.19;5051846;28;20047;-65
2022/11/28 05:40:33;;;;;;;21.90;13.50;;;;;;;-3.80;79.90;101580.19;5062493;28;20039;-70
2022/11/28 05:42:59;;;;;;;15.77;9.80;;;;;;;-3.74;80.07;101585.53;5064280;28;20142;-69
2022/11/28 05:45:24;;;;;;;20.83;12.15;;;;;;;-3.78;80.35;101589.81;5065943;28;20104;-69
2022/11/28 05:47:49;;;;;;;21.02;11.63;;;;;;;-3.73;80.15;101585.56;5061674;28;20043;-71
2022/11/28 05:50:13;;;;;;;17.70;10.43;;;;;;;-3.65;80.00;101585.69;5062288;28;20116;-70
2022/11/28 05:52:38;;;;;;;17.70;9.45;;;;;;;-3.59;80.15;101595.31;5054437;28;20044;-73
2022/11/28 05:55:03;;;;;;;13.95;8.85;;;;;;;-3.50;79.54;101605.94;5052931;28;20086;-66
2022/11/28 05:57:28;;;;;;;11.13;6.88;;;;;;;-3.46;79.13;101600.78;5066391;28;20044;-66
2022/11/28 05:59:53;;;;;;;21.58;10.80;;;;;;;-3.56;78.96;101598.00;5065779;28;20148;-70
2022/11/28 06:02:17;;;;;;;21.52;12.23;;;;;;;-3.67;79.06;101597.81;5025451;28;20107;-70
2022/11/28 06:04:42;;;;;;;12.02;7.75;;;;;;;-3.62;79.88;101610.94;5057777;28;20073;-69
2022/11/28 06:07:07;;;;;;;13.80;7.32;;;;;;;-3.18;78.51;101599.50;5057032;28;20169;-69
2022/11/28 06:09:32;;;;;;;15.95;9.57;;;;;;;-3.30;77.43;101599.31;5055939;28;20036;-70
2022/11/28 06:11:57;;;;;;;12.68;8.00;;;;;;;-3.51;77.58;101594.63;5037927;28;20044;-68
2022/11/28 06:14:21;;;;;;;9.23;5.30;;;;;;;-3.35;77.71;101591.41;5054623;28;20067;-68
2022/11/28 06:16:46;;;;;;;9.98;6.38;;;;;;;-3.24;76.89;101588.97;5046185;28;20047;-68
2022/11/28 06:19:11;;;;;;;6.90;3.90;;;;;;;-3.33;76.43;101613.16;5040822;28;20047;-67
2022/11/28 06:21:36;;;;;;;12.68;7.53;;;;;;;-3.35;76.01;101600.94;5054571;28;20036;-67
2022/11/28 06:24:01;;;;;;;12.02;7.03;;;;;;;-3.42;76.10;101599.97;5064054;28;20054;-68
2022/11/28 06:26:27;;;;;;;7.07;4.90;;;;;;;-3.31;76.00;101601.03;5036277;28;20036;-67
2022/11/28 06:28:54;;;;;;;14.75;8.32;;;;;;;-3.46;75.38;101598.16;5054441;28;20044;-68
2022/11/28 06:31:21;;;;;;;9.55;5.75;;;;;;;-3.53;76.08;101608.47;5054475;28;20044;-67
2022/11/28 06:33:46;;;;;;;15.55;8.27;;;;;;;-3.60;76.74;101615.28;5042077;28;20054;-68
2022/11/28 06:36:12;;;;;;;12.38;5.95;;;;;;;-3.45;76.59;101602.53;5056170;28;20031;-69
2022/11/28 06:38:37;;;;;;;7.03;4.40;;;;;;;-3.45;76.08;101610.34;5056349;28;20036;-69
2022/11/28 06:41:05;;;;;;;9.82;5.88;;;;;;;-3.37;75.76;101613.97;5054860;28;20050;-67
2022/11/28 06:43:30;;;;;;;11.63;6.20;;;;;;;-3.47;75.07;101613.78;5054727;28;20459;-68
2022/11/28 06:45:54;;;;;;;6.63;4.35;;;;;;;-3.50;75.54;101611.16;5036690;28;20841;-68
2022/11/28 06:48:19;;;;;;;12.32;5.45;;;;;;;-3.45;75.53;101610.34;5054475;28;20055;-69
2022/11/28 06:50:44;;;;;;;8.55;4.72;;;;;;;-3.34;74.94;101602.69;5050114;28;20036;-69
2022/11/28 06:53:08;;;;;;;8.13;5.82;;;;;;;-3.52;75.36;101605.91;5054090;28;20506;-68
2022/11/28 06:55:33;;;;;;;8.48;5.35;;;;;;;-3.33;74.52;101609.69;5050062;28;20093;-68
2022/11/28 06:57:58;;;;;;;12.57;6.13;;;;;;;-3.48;74.31;101609.41;5045227;28;20421;-67
2022/11/28 07:00:22;;;;;;;8.48;5.20;;;;;;;-3.40;74.98;101615.66;5055239;28;20115;-66
2022/11/28 07:02:47;;;;;;;11.60;6.88;;;;;;;-3.50;74.67;101605.94;5056116;28;20449;-68
2022/11/28 07:05:15;;;;;;;5.45;3.70;;;;;;;-3.41;75.38;101611.28;5048680;28;20084;-66
2022/11/28 07:07:39;;;;;;;8.00;5.13;;;;;;;-3.36;74.49;101614.84;5037037;28;20036;-68
2022/11/28 07:10:05;;;;;;;8.65;5.85;;;;;;;-3.52;74.68;101634.56;5054680;28;20047;-68
2022/11/28 07:12:29;;;;;;;11.00;5.22;;;;;;;-3.41;75.25;101617.38;5054589;28;20102;-67
2022/11/28 07:14:54;;;;;;;14.18;6.38;;;;;;;-3.43;75.06;101632.13;5054293;28;20036;-67
2022/11/28 07:17:19;;;;;;;7.70;5.07;;;;;;;-3.25;74.63;101617.63;5053687;28;20544;-67
2022/11/28 07:19:44;;;;;;;11.70;5.18;;;;;;;-3.19;74.38;101628.16;5054409;28;20086;-66
2022/11/28 07:22:10;;;;;;;9.20;5.28;;;;;;;-3.16;73.92;101613.41;5057197;28;20047;-67
2022/11/28 07:24:35;;;;;;;10.35;6.03;;;;;;;-3.26;73.75;101614.13;5043033;28;20055;-66
2022/11/28 07:27:00;;;;;;;14.13;6.53;;;;;;;-3.16;73.84;101626.47;5045123;28;20035;-65
2022/11/28 07:29:29;;;;;;;8.60;5.43;;;;;;;-3.17;73.12;101613.44;5065557;28;20089;-65
2022/11/28 07:31:54;;;;;;;11.82;7.25;;;;;;;-3.23;73.17;101642.00;5057168;28;20123;-65
2022/11/28 07:34:18;;;;;;;15.02;7.22;;;;;;;-3.47;73.82;101634.63;5057314;28;20130;-65
2022/11/28 07:36:43;;;;;;;8.85;6.00;;;;;;;-3.35;74.08;101625.28;5057084;28;20044;-69
2022/11/28 07:39:11;;;;;;;10.88;5.72;;;;;;;-3.28;73.86;101630.63;5057545;28;20498;-70
2022/11/28 07:41:35;;;;;;;16.50;9.45;;;;;;;-3.43;73.96;101624.31;5057379;28;20044;-69
2022/11/28 07:44:02;;;;;;;13.48;7.10;;;;;;;-3.42;74.73;101626.06;5058052;28;20155;-69
2022/11/28 07:46:29;;;;;;;12.05;7.43;;;;;;;-3.33;74.55;101631.41;5070609;28;20039;-69
2022/11/28 07:48:54;;;;;;;13.98;6.25;;;;;;;-3.33;74.43;101631.41;5058922;28;20086;-68
2022/11/28 07:51:22;;;;;;;16.15;7.47;;;;;;;-3.30;74.26;101626.25;5057087;28;20160;-69
2022/11/28 07:53:47;;;;;;;14.32;7.40;;;;;;;-3.36;74.79;101648.75;5022571;28;20084;-70
2022/11/28 07:56:15;;;;;;;15.55;8.35;;;;;;;-3.37;74.62;101633.94;5056541;28;20063;-68
2022/11/28 07:58:41;;;;;;;6.07;4.25;;;;;;;-3.33;74.55;101656.63;5056898;28;20043;-69
2022/11/28 08:01:11;;;;;;;10.80;6.35;;;;;;;-3.24;74.52;101640.25;5045506;28;20501;-71
2022/11/28 08:03:35;;;;;;;13.32;8.13;;;;;;;-3.41;75.02;101639.97;5045766;28;20044;-69
2022/11/28 08:06:01;;;;;;;12.18;7.15;;;;;;;-3.38;75.29;101632.19;5022317;28;20052;-70
2022/11/28 08:08:25;;;;;;;12.18;7.28;;;;;;;-3.19;74.67;101633.38;5022351;28;20078;-70
2022/11/28 08:10:50;;;;;;;18.27;8.27;;;;;;;-3.32;74.85;101641.00;5057767;28;20077;-70
2022/11/28 08:13:15;;;;;;;18.08;9.63;;;;;;;-3.38;74.82;101646.09;5059184;28;20047;-69
2022/11/28 08:15:39;;;;;;;12.07;6.80;;;;;;;-3.24;75.11;101635.03;5057175;28;20044;-71
2022/11/28 08:18:05;;;;;;;16.35;9.00;;;;;;;-3.19;74.71;101642.09;5057774;28;20036;-70
2022/11/28 08:20:30;;;;;;;11.45;7.45;;;;;;;-3.35;74.88;101645.28;5015246;28;20058;-69
2022/11/28 08:22:54;;;;;;;17.75;9.52;;;;;;;-3.34;75.11;101658.34;5038473;28;20040;-70
2022/11/28 08:25:19;;;;;;;9.65;5.97;;;;;;;-3.31;75.17;101647.09;5070959;28;20046;-70
2022/11/28 08:27:43;;;;;;;11.88;5.05;;;;;;;-3.24;75.71;101640.25;5050503;28;20140;-70
2022/11/28 08:30:08;;;;;;;18.67;9.50;;;;;;;-3.28;75.37;101649.75;5058370;28;20113;-70
2022/11/28 08:32:33;;;;;;;10.48;6.07;;;;;;;-3.15;75.05;101654.31;5056328;28;20128;-68
2022/11/28 08:34:58;;;;;;;8.23;6.05;;;;;;;-3.07;74.81;101685.75;5056105;28;20095;-68
2022/11/28 08:37:22;;;;;;;10.40;6.10;;;;;;;-3.19;74.93;101659.47;5057285;28;20032;-70
2022/11/28 08:39:47;;;;;;;8.85;5.50;;;;;;;-3.17;75.12;101662.97;5056953;28;20040;-69
2022/11/28 08:42:11;;;;;;;8.65;4.97;;;;;;;-3.09;74.75;101661.38;5056284;28;20489;-70
2022/11/28 08:44:36;;;;;;;14.50;8.57;;;;;;;-3.25;74.47;101675.00;5057288;28;20051;-70
2022/11/28 08:47:00;;;;;;;18.52;9.35;;;;;;;-3.39;75.04;101670.44;5039540;28;20044;-70
2022/11/28 08:49:25;;;;;;;8.45;5.13;;;;;;;-3.26;75.06;101679.34;5057604;28;20413;-70
2022/11/28 08:51:50;;;;;;;9.50;6.55;;;;;;;-3.17;75.09;101676.03;5054320;28;20043;-68
2022/11/28 08:54:14;;;;;;;13.82;8.70;;;;;;;-3.28;74.97;101674.97;5046074;28;20115;-68
2022/11/28 08:56:39;;;;;;;12.90;6.88;;;;;;;-3.31;75.34;101670.56;5045968;28;20510;-68
2022/11/28 08:59:04;;;;;;;17.45;9.98;;;;;;;-3.45;75.58;101677.25;5057525;28;20093;-71
2022/11/28 09:01:29;;;;;;;12.45;7.38;;;;;;;-3.47;76.22;101668.53;5057331;28;20520;-72
2022/11/28 09:03:54;;;;;;;10.82;4.80;;;;;;;-3.44;76.32;101684.25;5038384;28;20101;-73
2022/11/28 09:06:19;;;;;;;14.35;8.48;;;;;;;-3.45;76.59;101672.94;5056902;28;20509;-72
2022/11/28 09:08:44;;;;;;;8.50;4.70;;;;;;;-3.30;76.04;101672.31;5056895;28;20035;-72
2022/11/28 09:11:11;;;;;;;18.38;8.50;;;;;;;-3.40;76.11;101683.47;5054817;28;20048;-73
2022/11/28 09:13:36;;;;;;;10.82;5.25;;;;;;;-3.30;76.16;101681.03;5063306;28;20182;-71
2022/11/28 09:16:03;;;;;;;15.30;8.63;;;;;;;-3.28;75.65;101675.84;5069063;28;20050;-73
2022/11/28 09:18:28;;;;;;;14.77;7.88;;;;;;;-3.42;75.86;101669.50;5065036;28;20044;-72
2022/11/28 09:21:00;;;;;;;9.00;5.60;;;;;;;-3.30;75.73;101688.84;5065205;28;20065;-72
2022/11/28 09:23:25;;;;;;;21.02;10.38;;;;;;;-3.47;75.65;101674.63;5067671;28;20948;-72
2022/11/28 09:25:50;;;;;;;19.15;10.15;;;;;;;-3.48;75.98;101667.66;5073129;28;20043;-71
2022/11/28 09:28:14;;;;;;;9.40;5.43;;;;;;;-3.36;75.93;101680.03;5063980;28;20040;-72
2022/11/28 09:30:39;;;;;;;12.93;7.35;;;;;;;-3.41;75.59;101674.75;5064673;28;20044;-73
2022/11/28 09:33:04;;;;;;;17.73;8.63;;;;;;;-3.37;75.70;101686.09;5061788;28;20043;-71
2022/11/28 09:35:28;;;;;;;18.83;9.80;;;;;;;-3.47;75.75;101679.84;5059683;28;20091;-71
2022/11/28 09:37:53;;;;;;;10.93;6.22;;;;;;;-3.45;75.61;101683.34;5056985;28;20087;-72
2022/11/28 09:40:40;;;;;;;21.67;10.85;;;;;;;-3.46;75.60;101673.78;5052716;28;20039;-74
2022/11/28 09:43:18;;;;;;;4.45;2.97;;;;;;;-3.39;75.78;101688.69;5057168;28;20032;-71
2022/11/28 09:45:48;;;;;;;16.05;8.00;;;;;;;-3.42;75.15;101679.94;5056921;28;20040;-73
2022/11/28 09:48:35;;;;;;;8.23;4.43;;;;;;;-3.37;75.43;101673.06;5058960;28;20104;-71
2022/11/28 09:51:18;;;;;;;11.75;6.00;;;;;;;-3.38;75.30;101680.00;5049638;28;20039;-67
2022/11/28 09:54:07;;;;;;;17.27;9.55;;;;;;;-3.55;75.78;101670.13;5063645;28;20379;-66
2022/11/28 09:56:32;;;;;;;17.55;9.38;;;;;;;-3.56;75.84;101682.28;5059808;28;20059;-66
2022/11/28 09:59:01;;;;;;;16.40;9.00;;;;;;;-3.59;75.99;101677.00;5060264;28;20044;-68
2022/11/28 10:01:46;;;;;;;10.30;6.38;;;;;;;-3.43;76.24;101678.19;5057239;28;20047;-66
2022/11/28 10:04:32;;;;;;;9.68;5.75;;;;;;;-3.31;76.25;101675.78;5059902;28;20043;-67
2022/11/28 10:07:15;;;;;;;11.45;6.97;;;;;;;-3.17;74.98;101669.06;5062817;28;20054;-66
2022/11/28 10:10:08;;;;;;;13.50;6.97;;;;;;;-3.27;74.34;101674.97;5065528;28;20047;-68
2022/11/28 10:12:41;;;;;;;14.05;7.65;;;;;;;-3.34;75.25;101671.38;5043826;28;20067;-67
2022/11/28 10:15:15;;;;;;;11.73;7.20;;;;;;;-3.43;74.75;101665.13;5055119;28;20069;-64
2022/11/28 10:17:58;;;;;;;11.80;6.68;;;;;;;-3.23;74.33;101666.34;5048168;28;20071;-65
2022/11/28 10:20:27;;;;;;;13.60;7.05;;;;;;;-3.35;74.00;101664.41;5063220;28;20047;-66
2022/11/28 10:23:03;;;;;;;7.40;4.85;;;;;;;-3.29;74.54;101663.66;5061389;28;20043;-66
2022/11/28 10:25:30;;;;;;;13.77;7.03;;;;;;;-3.41;74.45;101659.09;5061364;28;20036;-69
2022/11/28 10:27:56;;;;;;;9.00;6.00;;;;;;;-3.38;75.16;101666.97;5057962;28;20044;-69
2022/11/28 10:30:26;;;;;;;9.43;6.65;;;;;;;-3.45;75.22;101661.63;5053516;28;20032;-66
2022/11/28 10:33:00;;;;;;;11.30;6.47;;;;;;;-3.38;75.71;101668.69;5060017;28;20051;-65
2022/11/28 10:35:33;;;;;;;10.77;5.53;;;;;;;-3.35;75.33;101668.75;5059962;28;20040;-66
2022/11/28 10:37:57;;;;;;;9.85;5.95;;;;;;;-3.15;75.30;101661.25;5056076;28;20109;-67
2022/11/28 10:40:22;;;;;;;8.73;6.32;;;;;;;-3.17;74.90;101662.97;5064941;28;20031;-66
2022/11/28 10:43:00;;;;;;;11.38;6.82;;;;;;;-3.17;74.62;101666.47;5065394;28;20527;-66
2022/11/28 10:45:33;;;;;;;9.75;6.65;;;;;;;-3.30;74.77;101673.22;5055301;28;20040;-65
2022/11/28 10:48:04;;;;;;;10.93;6.22;;;;;;;-3.22;74.62;101675.06;5055429;28;20086;-67
2022/11/28 10:51:08;;;;;;;11.10;4.90;;;;;;;-2.98;73.82;101671.13;5055671;28;20043;-66
2022/11/28 10:54:13;;;;;;;12.50;6.35;;;;;;;-3.10;73.73;101677.88;5006926;28;20049;-65
2022/11/28 10:56:46;;;;;;;9.82;5.72;;;;;;;-3.09;72.47;101672.69;4986709;28;20053;-66
2022/11/28 10:59:34;;;;;;;6.88;4.35;;;;;;;-3.07;72.62;101672.72;4979792;28;20512;-66
2022/11/28 11:02:23;;;;;;;5.05;2.40;;;;;;;-2.99;72.21;101668.50;4951153;28;20058;-66
2022/11/28 11:04:48;;;;;;;7.63;4.65;;;;;;;-3.04;71.25;101665.78;4956994;28;20502;-65
2022/11/28 11:07:19;;;;;;;7.28;4.50;;;;;;;-3.16;71.16;101672.56;4956803;28;20527;-66
2022/11/28 11:09:44;;;;;;;7.18;4.43;;;;;;;-3.11;71.71;101678.72;4940783;28;20088;-65
2022/11/28 11:12:33;;;;;;;9.88;5.85;;;;;;;-3.28;71.89;101667.16;4957494;28;20058;-66
2022/11/28 11:15:13;;;;;;;6.05;3.50;;;;;;;-3.18;72.45;101676.88;4956948;28;20846;-66
2022/11/28 11:17:37;;;;;;;5.63;3.20;;;;;;;-3.04;71.53;101670.13;4956540;28;20109;-64
2022/11/28 11:20:29;;;;;;;8.27;4.88;;;;;;;-3.12;71.59;101671.75;4956708;28;20054;-65
2022/11/28 11:23:17;;;;;;;5.28;3.70;;;;;;;-3.18;72.06;101677.75;4956588;28;20398;-67
2022/11/28 11:25:54;;;;;;;7.70;4.40;;;;;;;-3.11;71.84;101681.31;4956332;28;20082;-66
2022/11/28 11:28:40;;;;;;;11.55;6.82;;;;;;;-3.16;71.59;101693.44;4940079;28;20042;-65
2022/11/28 11:31:15;;;;;;;8.13;4.88;;;;;;;-3.23;71.36;101679.38;4969757;28;20627;-64